sensor_id;sensor_type;location;lat;lon;timestamp;pressure;altitude;pressure_sealevel;temperature;humidity
54453;BME280;40363;52.270;10.546;2023-05-11T00:01:40;76291.97;;;-147.06;100.00
54453;BME280;40363;52.270;10.546;2023-05-11T00:04:07;76296.09;;;-147.06;100.00
54453;BME280;40363;52.270;10.546;2023-05-11T00:06:35;76296.09;;;-147.06;100.00
54453;BME280;40363;52.270;10.546;2023-05-11T00:09:02;76296.09;;;-147.06;100.00
54453;BME280;40363;52.270;10.546;2023-05-11T00:11:29;76298.16;;;-147.06;100.00
54453;BME280;40363;52.270;10.546;2023-05-11T00:13:56;76296.09;;;-147.06;100.00
54453;BME280;40363;52.270;10.546;2023-05-11T00:16:22;76291.97;;;-147.06;100.00
54453;BME280;40363;52.270;10.546;2023-05-11T00:18:49;76296.09;;;-147.06;100.00
54453;BME280;40363;52.270;10.546;2023-05-11T00:21:15;76302.25;;;-147.06;100.00
54453;BME280;40363;52.270;10.546;2023-05-11T00:23:43;76298.16;;;-147.06;100.00
54453;BME280;40363;52.270;10.546;2023-05-11T00:26:10;76300.19;;;-147.06;100.00
54453;BME280;40363;52.270;10.546;2023-05-11T00:28:37;76298.16;;;-147.06;100.00
54453;BME280;40363;52.270;10.546;2023-05-11T00:31:03;76302.25;;;-147.06;100.00
54453;BME280;40363;52.270;10.546;2023-05-11T00:33:30;76300.19;;;-147.06;100.00
54453;BME280;40363;52.270;10.546;2023-05-11T00:35:57;76291.97;;;-147.06;100.00
54453;BME280;40363;52.270;10.546;2023-05-11T00:38:23;76300.19;;;-147.06;100.00
54453;BME280;40363;52.270;10.546;2023-05-11T00:40:51;76300.19;;;-147.06;100.00
54453;BME280;40363;52.270;10.546;2023-05-11T00:43:18;76300.19;;;-147.06;100.00
54453;BME280;40363;52.270;10.546;2023-05-11T00:45:44;76291.97;;;-147.06;100.00
54453;BME280;40363;52.270;10.546;2023-05-11T00:48:13;76296.09;;;-147.06;100.00
54453;BME280;40363;52.270;10.546;2023-05-11T00:50:40;76289.94;;;-147.06;100.00
54453;BME280;40363;52.270;10.546;2023-05-11T00:53:08;76291.97;;;-147.06;100.00
54453;BME280;40363;52.270;10.546;2023-05-11T00:55:36;76285.81;;;-147.06;100.00
54453;BME280;40363;52.270;10.546;2023-05-11T00:58:04;76289.94;;;-147.06;100.00
54453;BME280;40363;52.270;10.546;2023-05-11T01:00:31;76279.66;;;-147.06;100.00
54453;BME280;40363;52.270;10.546;2023-05-11T01:02:58;76273.47;;;-147.06;100.00
54453;BME280;40363;52.270;10.546;2023-05-11T01:05:30;76273.47;;;-147.06;100.00
54453;BME280;40363;52.270;10.546;2023-05-11T01:08:01;76267.31;;;-147.06;100.00
54453;BME280;40363;52.270;10.546;2023-05-11T01:10:33;76265.25;;;-147.06;100.00
54453;BME280;40363;52.270;10.546;2023-05-11T01:13:12;76267.31;;;-147.06;100.00
54453;BME280;40363;52.270;10.546;2023-05-11T01:15:45;76273.47;;;-147.06;100.00
54453;BME280;40363;52.270;10.546;2023-05-11T01:18:18;76275.53;;;-147.06;100.00
54453;BME280;40363;52.270;10.546;2023-05-11T01:20:47;76271.44;;;-147.06;100.00
54453;BME280;40363;52.270;10.546;2023-05-11T01:26:34;76285.81;;;-147.06;100.00
54453;BME280;40363;52.270;10.546;2023-05-11T01:29:25;76279.66;;;-147.06;100.00
54453;BME280;40363;52.270;10.546;2023-05-11T01:32:01;76273.47;;;-147.06;100.00
54453;BME280;40363;52.270;10.546;2023-05-11T01:34:31;76261.16;;;-147.06;100.00
54453;BME280;40363;52.270;10.546;2023-05-11T01:37:06;76263.22;;;-147.06;100.00
54453;BME280;40363;52.270;10.546;2023-05-11T01:39:37;76263.22;;;-147.06;100.00
54453;BME280;40363;52.270;10.546;2023-05-11T01:42:08;76267.31;;;-147.06;100.00
54453;BME280;40363;52.270;10.546;2023-05-11T01:44:38;76271.44;;;-147.06;100.00
54453;BME280;40363;52.270;10.546;2023-05-11T01:47:07;76281.72;;;-147.06;100.00
54453;BME280;40363;52.270;10.546;2023-05-11T01:49:37;76281.72;;;-147.06;100.00
54453;BME280;40363;52.270;10.546;2023-05-11T01:52:06;76287.88;;;-147.06;100.00
54453;BME280;40363;52.270;10.546;2023-05-11T01:54:34;76296.09;;;-147.06;100.00
54453;BME280;40363;52.270;10.546;2023-05-11T01:57:02;76302.25;;;-147.06;100.00
54453;BME280;40363;52.270;10.546;2023-05-11T01:59:30;76294.03;;;-147.06;100.00
54453;BME280;40363;52.270;10.546;2023-05-11T02:01:58;76289.94;;;-147.06;100.00
54453;BME280;40363;52.270;10.546;2023-05-11T02:04:28;76291.97;;;-147.06;100.00
54453;BME280;40363;52.270;10.546;2023-05-11T02:06:55;76294.03;;;-147.06;100.00
54453;BME280;40363;52.270;10.546;2023-05-11T02:09:25;76291.97;;;-147.06;100.00
54453;BME280;40363;52.270;10.546;2023-05-11T02:11:52;76281.72;;;-147.06;100.00
54453;BME280;40363;52.270;10.546;2023-05-11T02:14:23;76283.75;;;-147.06;100.00
54453;BME280;40363;52.270;10.546;2023-05-11T02:16:51;76283.75;;;-147.06;100.00
54453;BME280;40363;52.270;10.546;2023-05-11T02:19:19;76279.66;;;-147.06;100.00
54453;BME280;40363;52.270;10.546;2023-05-11T02:21:49;76283.75;;;-147.06;100.00
54453;BME280;40363;52.270;10.546;2023-05-11T02:24:18;76281.72;;;-147.06;100.00
54453;BME280;40363;52.270;10.546;2023-05-11T02:26:46;76289.94;;;-147.06;100.00
54453;BME280;40363;52.270;10.546;2023-05-11T02:29:13;76289.94;;;-147.06;100.00
54453;BME280;40363;52.270;10.546;2023-05-11T02:31:43;76277.59;;;-147.06;100.00
54453;BME280;40363;52.270;10.546;2023-05-11T02:34:16;76291.97;;;-147.06;100.00
54453;BME280;40363;52.270;10.546;2023-05-11T02:36:47;76296.09;;;-147.06;100.00
54453;BME280;40363;52.270;10.546;2023-05-11T02:39:17;76296.09;;;-147.06;100.00
54453;BME280;40363;52.270;10.546;2023-05-11T02:41:47;76289.94;;;-147.06;100.00
54453;BME280;40363;52.270;10.546;2023-05-11T02:44:16;76287.88;;;-147.06;100.00
54453;BME280;40363;52.270;10.546;2023-05-11T02:46:46;76291.97;;;-147.06;100.00
54453;BME280;40363;52.270;10.546;2023-05-11T02:49:14;76289.94;;;-147.06;100.00
54453;BME280;40363;52.270;10.546;2023-05-11T02:51:44;76296.09;;;-147.06;100.00
54453;BME280;40363;52.270;10.546;2023-05-11T02:54:15;76300.19;;;-147.06;100.00
54453;BME280;40363;52.270;10.546;2023-05-11T02:56:43;76300.19;;;-147.06;100.00
54453;BME280;40363;52.270;10.546;2023-05-11T02:59:11;76300.19;;;-147.06;100.00
54453;BME280;40363;52.270;10.546;2023-05-11T03:01:38;76298.16;;;-147.06;100.00
54453;BME280;40363;52.270;10.546;2023-05-11T03:04:05;76300.19;;;-147.06;100.00
54453;BME280;40363;52.270;10.546;2023-05-11T03:06:31;76300.19;;;-147.06;100.00
54453;BME280;40363;52.270;10.546;2023-05-11T03:08:59;76296.09;;;-147.06;100.00
54453;BME280;40363;52.270;10.546;2023-05-11T03:11:27;76291.97;;;-147.06;100.00
54453;BME280;40363;52.270;10.546;2023-05-11T03:13:54;76296.09;;;-147.06;100.00
54453;BME280;40363;52.270;10.546;2023-05-11T03:16:22;76289.94;;;-147.06;100.00
54453;BME280;40363;52.270;10.546;2023-05-11T03:18:50;76296.09;;;-147.06;100.00
54453;BME280;40363;52.270;10.546;2023-05-11T03:21:18;76289.94;;;-147.06;100.00
54453;BME280;40363;52.270;10.546;2023-05-11T03:23:46;76291.97;;;-147.06;100.00
54453;BME280;40363;52.270;10.546;2023-05-11T03:26:14;76285.81;;;-147.06;100.00
54453;BME280;40363;52.270;10.546;2023-05-11T03:28:43;76281.72;;;-147.06;100.00
54453;BME280;40363;52.270;10.546;2023-05-11T03:31:11;76279.66;;;-147.06;100.00
54453;BME280;40363;52.270;10.546;2023-05-11T03:33:38;76291.97;;;-147.06;100.00
54453;BME280;40363;52.270;10.546;2023-05-11T03:36:05;76302.25;;;-147.06;100.00
54453;BME280;40363;52.270;10.546;2023-05-11T03:38:34;76291.97;;;-147.06;100.00
54453;BME280;40363;52.270;10.546;2023-05-11T03:41:02;76291.97;;;-147.06;100.00
54453;BME280;40363;52.270;10.546;2023-05-11T03:43:29;76287.88;;;-147.06;100.00
54453;BME280;40363;52.270;10.546;2023-05-11T03:45:59;76283.75;;;-147.06;100.00
54453;BME280;40363;52.270;10.546;2023-05-11T03:48:28;76279.66;;;-147.06;100.00
54453;BME280;40363;52.270;10.546;2023-05-11T03:50:56;76283.75;;;-147.06;100.00
54453;BME280;40363;52.270;10.546;2023-05-11T03:53:23;76281.72;;;-147.06;100.00
54453;BME280;40363;52.270;10.546;2023-05-11T03:55:50;76279.66;;;-147.06;100.00
54453;BME280;40363;52.270;10.546;2023-05-11T03:58:19;76279.66;;;-147.06;100.00
54453;BME280;40363;52.270;10.546;2023-05-11T04:00:45;76275.53;;;-147.06;100.00
54453;BME280;40363;52.270;10.546;2023-05-11T04:03:13;76271.44;;;-147.06;100.00
54453;BME280;40363;52.270;10.546;2023-05-11T04:05:40;76275.53;;;-147.06;100.00
54453;BME280;40363;52.270;10.546;2023-05-11T04:08:08;76265.25;;;-147.06;100.00
54453;BME280;40363;52.270;10.546;2023-05-11T04:10:35;76263.22;;;-147.06;100.00
54453;BME280;40363;52.270;10.546;2023-05-11T04:13:02;76255.00;;;-147.06;100.00
54453;BME280;40363;52.270;10.546;2023-05-11T04:15:29;76255.00;;;-147.06;100.00
54453;BME280;40363;52.270;10.546;2023-05-11T04:17:56;76255.00;;;-147.06;100.00
54453;BME280;40363;52.270;10.546;2023-05-11T04:20:24;76242.66;;;-147.06;100.00
54453;BME280;40363;52.270;10.546;2023-05-11T04:22:50;76238.53;;;-147.06;100.00
54453;BME280;40363;52.270;10.546;2023-05-11T04:25:17;76234.44;;;-147.06;100.00
54453;BME280;40363;52.270;10.546;2023-05-11T04:27:44;76240.59;;;-147.06;100.00
54453;BME280;40363;52.270;10.546;2023-05-11T04:30:11;76240.59;;;-147.06;100.00
54453;BME280;40363;52.270;10.546;2023-05-11T04:32:38;76232.38;;;-147.06;100.00
54453;BME280;40363;52.270;10.546;2023-05-11T04:35:05;76232.38;;;-147.06;100.00
54453;BME280;40363;52.270;10.546;2023-05-11T04:37:33;76230.31;;;-147.06;100.00
54453;BME280;40363;52.270;10.546;2023-05-11T04:39:59;76230.31;;;-147.06;100.00
54453;BME280;40363;52.270;10.546;2023-05-11T04:42:26;76230.31;;;-147.06;100.00
54453;BME280;40363;52.270;10.546;2023-05-11T04:44:53;76228.28;;;-147.06;100.00
54453;BME280;40363;52.270;10.546;2023-05-11T04:47:19;76220.03;;;-147.06;100.00
54453;BME280;40363;52.270;10.546;2023-05-11T04:49:53;76222.09;;;-147.06;100.00
54453;BME280;40363;52.270;10.546;2023-05-11T04:52:20;76220.03;;;-147.06;100.00
54453;BME280;40363;52.270;10.546;2023-05-11T04:54:48;76211.81;;;-147.06;100.00
54453;BME280;40363;52.270;10.546;2023-05-11T04:57:14;76213.88;;;-147.06;100.00
54453;BME280;40363;52.270;10.546;2023-05-11T04:59:41;76222.09;;;-147.06;100.00
54453;BME280;40363;52.270;10.546;2023-05-11T05:02:15;76215.94;;;-147.06;100.00
54453;BME280;40363;52.270;10.546;2023-05-11T05:04:41;76209.78;;;-147.06;100.00
54453;BME280;40363;52.270;10.546;2023-05-11T05:07:08;76205.66;;;-147.06;100.00
54453;BME280;40363;52.270;10.546;2023-05-11T05:09:34;76211.81;;;-147.06;100.00
54453;BME280;40363;52.270;10.546;2023-05-11T05:12:03;76209.78;;;-147.06;100.00
54453;BME280;40363;52.270;10.546;2023-05-11T05:14:30;76205.66;;;-147.06;100.00
54453;BME280;40363;52.270;10.546;2023-05-11T05:16:56;76201.56;;;-147.06;100.00
54453;BME280;40363;52.270;10.546;2023-05-11T05:19:24;76213.88;;;-147.06;100.00
54453;BME280;40363;52.270;10.546;2023-05-11T05:21:51;76207.72;;;-147.06;100.00
54453;BME280;40363;52.270;10.546;2023-05-11T05:24:18;76197.44;;;-147.06;100.00
54453;BME280;40363;52.270;10.546;2023-05-11T05:26:44;76205.66;;;-147.06;100.00
54453;BME280;40363;52.270;10.546;2023-05-11T05:29:12;76201.56;;;-147.06;100.00
54453;BME280;40363;52.270;10.546;2023-05-11T05:31:39;76209.78;;;-147.06;100.00
54453;BME280;40363;52.270;10.546;2023-05-11T05:34:06;76205.66;;;-147.06;100.00
54453;BME280;40363;52.270;10.546;2023-05-11T05:39:27;76222.09;;;-147.06;100.00
54453;BME280;40363;52.270;10.546;2023-05-11T05:41:54;76226.22;;;-147.06;100.00
54453;BME280;40363;52.270;10.546;2023-05-11T05:44:22;76228.28;;;-147.06;100.00
54453;BME280;40363;52.270;10.546;2023-05-11T05:46:48;76228.28;;;-147.06;100.00
54453;BME280;40363;52.270;10.546;2023-05-11T05:49:15;76224.16;;;-147.06;100.00
54453;BME280;40363;52.270;10.546;2023-05-11T05:51:41;76226.22;;;-147.06;100.00
54453;BME280;40363;52.270;10.546;2023-05-11T05:54:08;76224.16;;;-147.06;100.00
54453;BME280;40363;52.270;10.546;2023-05-11T05:56:35;76222.09;;;-147.06;100.00
54453;BME280;40363;52.270;10.546;2023-05-11T05:59:01;76222.09;;;-147.06;100.00
54453;BME280;40363;52.270;10.546;2023-05-11T06:01:29;76230.31;;;-147.06;100.00
54453;BME280;40363;52.270;10.546;2023-05-11T06:03:56;76222.09;;;-147.06;100.00
54453;BME280;40363;52.270;10.546;2023-05-11T06:06:23;76220.03;;;-147.06;100.00
54453;BME280;40363;52.270;10.546;2023-05-11T06:08:50;76218.00;;;-147.06;100.00
54453;BME280;40363;52.270;10.546;2023-05-11T06:11:16;76213.88;;;-147.06;100.00
54453;BME280;40363;52.270;10.546;2023-05-11T06:13:43;76211.81;;;-147.06;100.00
54453;BME280;40363;52.270;10.546;2023-05-11T06:16:10;76197.44;;;-147.06;100.00
54453;BME280;40363;52.270;10.546;2023-05-11T06:18:38;76203.59;;;-147.06;100.00
54453;BME280;40363;52.270;10.546;2023-05-11T06:21:04;76199.50;;;-147.06;100.00
54453;BME280;40363;52.270;10.546;2023-05-11T06:23:31;76201.56;;;-147.06;100.00
54453;BME280;40363;52.270;10.546;2023-05-11T06:25:58;76187.16;;;-147.06;100.00
54453;BME280;40363;52.270;10.546;2023-05-11T06:28:24;76189.22;;;-147.06;100.00
54453;BME280;40363;52.270;10.546;2023-05-11T06:30:51;76205.66;;;-147.06;100.00
54453;BME280;40363;52.270;10.546;2023-05-11T06:33:17;76197.44;;;-147.06;100.00
54453;BME280;40363;52.270;10.546;2023-05-11T06:35:45;76197.44;;;-147.06;100.00
54453;BME280;40363;52.270;10.546;2023-05-11T06:38:13;76193.31;;;-147.06;100.00
54453;BME280;40363;52.270;10.546;2023-05-11T06:40:39;76197.44;;;-147.06;100.00
54453;BME280;40363;52.270;10.546;2023-05-11T06:43:06;76197.44;;;-147.06;100.00
54453;BME280;40363;52.270;10.546;2023-05-11T06:45:32;76197.44;;;-147.06;100.00
54453;BME280;40363;52.270;10.546;2023-05-11T06:47:59;76222.09;;;-147.06;100.00
54453;BME280;40363;52.270;10.546;2023-05-11T06:50:26;76201.56;;;-147.06;100.00
54453;BME280;40363;52.270;10.546;2023-05-11T06:52:53;76176.88;;;-147.06;100.00
54453;BME280;40363;52.270;10.546;2023-05-11T06:55:20;76156.34;;;-147.06;100.00
54453;BME280;40363;52.270;10.546;2023-05-11T06:57:47;76129.63;;;-147.06;100.00
54453;BME280;40363;52.270;10.546;2023-05-11T07:00:14;76129.63;;;-147.06;100.00
54453;BME280;40363;52.270;10.546;2023-05-11T07:02:41;76111.13;;;-147.06;100.00
54453;BME280;40363;52.270;10.546;2023-05-11T07:05:08;76102.91;;;-147.06;100.00
54453;BME280;40363;52.270;10.546;2023-05-11T07:07:34;76098.78;;;-147.06;100.00
54453;BME280;40363;52.270;10.546;2023-05-11T07:10:03;76104.97;;;-147.06;100.00
54453;BME280;40363;52.270;10.546;2023-05-11T07:12:33;76080.28;;;-147.06;100.00
54453;BME280;40363;52.270;10.546;2023-05-11T07:14:59;76072.06;;;-147.06;100.00
54453;BME280;40363;52.270;10.546;2023-05-11T07:17:26;76063.84;;;-147.06;100.00
54453;BME280;40363;52.270;10.546;2023-05-11T07:19:52;76063.84;;;-147.06;100.00
54453;BME280;40363;52.270;10.546;2023-05-11T07:22:19;76082.34;;;-147.06;100.00
54453;BME280;40363;52.270;10.546;2023-05-11T07:24:46;76082.34;;;-147.06;100.00
54453;BME280;40363;52.270;10.546;2023-05-11T07:27:14;76084.41;;;-147.06;100.00
54453;BME280;40363;52.270;10.546;2023-05-11T07:29:41;76098.78;;;-147.06;100.00
54453;BME280;40363;52.270;10.546;2023-05-11T07:32:07;76092.63;;;-147.06;100.00
54453;BME280;40363;52.270;10.546;2023-05-11T07:34:34;76092.63;;;-147.06;100.00
54453;BME280;40363;52.270;10.546;2023-05-11T07:37:00;76102.91;;;-147.06;100.00
54453;BME280;40363;52.270;10.546;2023-05-11T07:39:27;76111.13;;;-147.06;100.00
54453;BME280;40363;52.270;10.546;2023-05-11T07:41:54;76123.44;;;-147.06;100.00
54453;BME280;40363;52.270;10.546;2023-05-11T07:44:21;76133.72;;;-147.06;100.00
54453;BME280;40363;52.270;10.546;2023-05-11T07:46:48;76139.91;;;-147.06;100.00
54453;BME280;40363;52.270;10.546;2023-05-11T07:49:15;76133.72;;;-147.06;100.00
54453;BME280;40363;52.270;10.546;2023-05-11T07:51:41;76144.00;;;-147.06;100.00
54453;BME280;40363;52.270;10.546;2023-05-11T07:54:08;76144.00;;;-147.06;100.00
54453;BME280;40363;52.270;10.546;2023-05-11T07:56:35;76135.78;;;-147.06;100.00
54453;BME280;40363;52.270;10.546;2023-05-11T07:59:01;76152.22;;;-147.06;100.00
54453;BME280;40363;52.270;10.546;2023-05-11T08:01:29;76152.22;;;-147.06;100.00
54453;BME280;40363;52.270;10.546;2023-05-11T08:03:56;76154.28;;;-147.06;100.00
54453;BME280;40363;52.270;10.546;2023-05-11T08:06:23;76152.22;;;-147.06;100.00
54453;BME280;40363;52.270;10.546;2023-05-11T08:08:49;76146.06;;;-147.06;100.00
54453;BME280;40363;52.270;10.546;2023-05-11T08:11:16;76135.78;;;-147.06;100.00
54453;BME280;40363;52.270;10.546;2023-05-11T08:13:43;76133.72;;;-147.06;100.00
54453;BME280;40363;52.270;10.546;2023-05-11T08:16:09;76133.72;;;-147.06;100.00
54453;BME280;40363;52.270;10.546;2023-05-11T08:18:37;76123.44;;;-147.06;100.00
54453;BME280;40363;52.270;10.546;2023-05-11T08:21:04;76117.28;;;-147.06;100.00
54453;BME280;40363;52.270;10.546;2023-05-11T08:23:31;76113.19;;;-147.06;100.00
54453;BME280;40363;52.270;10.546;2023-05-11T08:25:59;76100.84;;;-147.06;100.00
54453;BME280;40363;52.270;10.546;2023-05-11T08:28:26;76119.34;;;-147.06;100.00
54453;BME280;40363;52.270;10.546;2023-05-11T08:30:53;76127.56;;;-147.06;100.00
54453;BME280;40363;52.270;10.546;2023-05-11T08:33:20;76117.28;;;-147.06;100.00
54453;BME280;40363;52.270;10.546;2023-05-11T08:35:48;76127.56;;;-147.06;100.00
54453;BME280;40363;52.270;10.546;2023-05-11T08:38:15;76133.72;;;-147.06;100.00
54453;BME280;40363;52.270;10.546;2023-05-11T08:40:43;76123.44;;;-147.06;100.00
54453;BME280;40363;52.270;10.546;2023-05-11T08:43:13;76141.94;;;-147.06;100.00
54453;BME280;40363;52.270;10.546;2023-05-11T08:45:40;76131.69;;;-147.06;100.00
54453;BME280;40363;52.270;10.546;2023-05-11T08:48:07;76111.13;;;-147.06;100.00
54453;BME280;40363;52.270;10.546;2023-05-11T08:50:34;76100.84;;;-147.06;100.00
54453;BME280;40363;52.270;10.546;2023-05-11T08:53:02;76100.84;;;-147.06;100.00
54453;BME280;40363;52.270;10.546;2023-05-11T08:55:30;76090.56;;;-147.06;100.00
54453;BME280;40363;52.270;10.546;2023-05-11T08:57:59;76084.41;;;-147.06;100.00
54453;BME280;40363;52.270;10.546;2023-05-11T09:00:28;76074.13;;;-147.06;100.00
54453;BME280;40363;52.270;10.546;2023-05-11T09:02:56;76065.91;;;-147.06;100.00
54453;BME280;40363;52.270;10.546;2023-05-11T09:05:24;76074.13;;;-147.06;100.00
54453;BME280;40363;52.270;10.546;2023-05-11T09:07:59;76074.13;;;-147.06;100.00
54453;BME280;40363;52.270;10.546;2023-05-11T09:10:27;76049.47;;;-147.06;100.00
54453;BME280;40363;52.270;10.546;2023-05-11T09:12:57;76053.56;;;-147.06;100.00
54453;BME280;40363;52.270;10.546;2023-05-11T09:15:24;76041.25;;;-147.06;100.00
54453;BME280;40363;52.270;10.546;2023-05-11T09:17:50;76030.97;;;-147.06;100.00
54453;BME280;40363;52.270;10.546;2023-05-11T09:20:25;76026.84;;;-147.06;100.00
54453;BME280;40363;52.270;10.546;2023-05-11T09:22:52;76022.75;;;-147.06;100.00
54453;BME280;40363;52.270;10.546;2023-05-11T09:25:21;76037.13;;;-147.06;100.00
54453;BME280;40363;52.270;10.546;2023-05-11T09:27:52;76041.25;;;-147.06;100.00
54453;BME280;40363;52.270;10.546;2023-05-11T09:30:20;76020.69;;;-147.06;100.00
54453;BME280;40363;52.270;10.546;2023-05-11T09:32:49;75996.03;;;-147.06;100.00
54453;BME280;40363;52.270;10.546;2023-05-11T09:35:23;75979.59;;;-147.06;100.00
54453;BME280;40363;52.270;10.546;2023-05-11T09:38:01;75957.00;;;-147.06;100.00
54453;BME280;40363;52.270;10.546;2023-05-11T09:40:29;75950.81;;;-147.06;100.00
54453;BME280;40363;52.270;10.546;2023-05-11T09:42:58;75944.66;;;-147.06;100.00
54453;BME280;40363;52.270;10.546;2023-05-11T09:45:37;75961.09;;;-147.06;100.00
54453;BME280;40363;52.270;10.546;2023-05-11T09:48:05;75985.75;;;-147.06;100.00
54453;BME280;40363;52.270;10.546;2023-05-11T09:50:33;76000.16;;;-147.06;100.00
54453;BME280;40363;52.270;10.546;2023-05-11T09:53:01;76012.47;;;-147.06;100.00
54453;BME280;40363;52.270;10.546;2023-05-11T09:55:27;76012.47;;;-147.06;100.00
54453;BME280;40363;52.270;10.546;2023-05-11T09:57:55;75993.97;;;-147.06;100.00
54453;BME280;40363;52.270;10.546;2023-05-11T10:00:24;75979.59;;;-147.06;100.00
54453;BME280;40363;52.270;10.546;2023-05-11T10:03:01;75926.16;;;-147.06;100.00
54453;BME280;40363;52.270;10.546;2023-05-11T10:05:29;75868.63;;;-147.06;100.00
54453;BME280;40363;52.270;10.546;2023-05-11T10:07:57;75860.41;;;-147.06;100.00
54453;BME280;40363;52.270;10.546;2023-05-11T10:10:25;75827.50;;;-147.06;100.00
54453;BME280;40363;52.270;10.546;2023-05-11T10:12:53;75823.41;;;-147.06;100.00
54453;BME280;40363;52.270;10.546;2023-05-11T10:15:22;75804.91;;;-147.06;100.00
54453;BME280;40363;52.270;10.546;2023-05-11T10:17:53;75811.06;;;-147.06;100.00
54453;BME280;40363;52.270;10.546;2023-05-11T10:20:20;75821.34;;;-147.06;100.00
54453;BME280;40363;52.270;10.546;2023-05-11T10:22:49;75817.25;;;-147.06;100.00
54453;BME280;40363;52.270;10.546;2023-05-11T10:25:17;75839.84;;;-147.06;100.00
54453;BME280;40363;52.270;10.546;2023-05-11T10:27:43;75837.78;;;-147.06;100.00
54453;BME280;40363;52.270;10.546;2023-05-11T10:30:11;75835.75;;;-147.06;100.00
54453;BME280;40363;52.270;10.546;2023-05-11T10:32:38;75825.47;;;-147.06;100.00
54453;BME280;40363;52.270;10.546;2023-05-11T10:35:07;75825.47;;;-147.06;100.00
54453;BME280;40363;52.270;10.546;2023-05-11T10:37:34;75811.06;;;-147.06;100.00
54453;BME280;40363;52.270;10.546;2023-05-11T10:40:01;75796.69;;;-147.06;100.00
54453;BME280;40363;52.270;10.546;2023-05-11T10:42:50;75819.28;;;-147.06;100.00
54453;BME280;40363;52.270;10.546;2023-05-11T10:45:25;75815.19;;;-147.06;100.00
54453;BME280;40363;52.270;10.546;2023-05-11T10:48:13;75833.69;;;-147.06;100.00
54453;BME280;40363;52.270;10.546;2023-05-11T10:50:59;75813.13;;;-147.06;100.00
54453;BME280;40363;52.270;10.546;2023-05-11T10:53:40;75825.47;;;-147.06;100.00
54453;BME280;40363;52.270;10.546;2023-05-11T10:56:35;75802.84;;;-147.06;100.00
54453;BME280;40363;52.270;10.546;2023-05-11T10:59:21;75806.97;;;-147.06;100.00
54453;BME280;40363;52.270;10.546;2023-05-11T11:01:53;75829.56;;;-147.06;100.00
54453;BME280;40363;52.270;10.546;2023-05-11T11:04:23;75839.84;;;-147.06;100.00
54453;BME280;40363;52.270;10.546;2023-05-11T11:07:03;75846.00;;;-147.06;100.00
54453;BME280;40363;52.270;10.546;2023-05-11T11:09:49;75874.78;;;-147.06;100.00
54453;BME280;40363;52.270;10.546;2023-05-11T11:12:17;75901.50;;;-147.06;100.00
54453;BME280;40363;52.270;10.546;2023-05-11T11:14:55;75891.22;;;-147.06;100.00
54453;BME280;40363;52.270;10.546;2023-05-11T11:17:23;75905.59;;;-147.06;100.00
54453;BME280;40363;52.270;10.546;2023-05-11T11:19:51;75899.44;;;-147.06;100.00
54453;BME280;40363;52.270;10.546;2023-05-11T11:22:44;75911.78;;;-147.06;100.00
54453;BME280;40363;52.270;10.546;2023-05-11T11:25:13;75930.28;;;-147.06;100.00
54453;BME280;40363;52.270;10.546;2023-05-11T11:27:57;75922.06;;;-147.06;100.00
54453;BME280;40363;52.270;10.546;2023-05-11T11:30:25;75922.06;;;-147.06;100.00
54453;BME280;40363;52.270;10.546;2023-05-11T11:32:54;75926.16;;;-147.06;100.00
54453;BME280;40363;52.270;10.546;2023-05-11T11:35:46;75920.00;;;-147.06;100.00
54453;BME280;40363;52.270;10.546;2023-05-11T11:38:16;75928.22;;;-147.06;100.00
54453;BME280;40363;52.270;10.546;2023-05-11T11:40:44;75901.50;;;-147.06;100.00
54453;BME280;40363;52.270;10.546;2023-05-11T11:43:12;75897.38;;;-147.06;100.00
54453;BME280;40363;52.270;10.546;2023-05-11T11:45:50;75885.06;;;-147.06;100.00
54453;BME280;40363;52.270;10.546;2023-05-11T11:48:21;75897.38;;;-147.06;100.00
54453;BME280;40363;52.270;10.546;2023-05-11T11:50:49;75901.50;;;-147.06;100.00
54453;BME280;40363;52.270;10.546;2023-05-11T11:56:41;75907.66;;;-147.06;100.00
54453;BME280;40363;52.270;10.546;2023-05-11T11:59:09;75907.66;;;-147.06;100.00
54453;BME280;40363;52.270;10.546;2023-05-11T12:01:38;75913.81;;;-147.06;100.00
54453;BME280;40363;52.270;10.546;2023-05-11T12:07:14;75922.06;;;-147.06;100.00
54453;BME280;40363;52.270;10.546;2023-05-11T12:09:44;75917.94;;;-147.06;100.00
54453;BME280;40363;52.270;10.546;2023-05-11T12:12:16;75924.09;;;-147.06;100.00
54453;BME280;40363;52.270;10.546;2023-05-11T12:14:44;75928.22;;;-147.06;100.00
54453;BME280;40363;52.270;10.546;2023-05-11T12:17:15;75926.16;;;-147.06;100.00
54453;BME280;40363;52.270;10.546;2023-05-11T12:19:48;75926.16;;;-147.06;100.00
54453;BME280;40363;52.270;10.546;2023-05-11T12:22:20;75930.28;;;-147.06;100.00
54453;BME280;40363;52.270;10.546;2023-05-11T12:24:47;75924.09;;;-147.06;100.00
54453;BME280;40363;52.270;10.546;2023-05-11T12:27:16;75887.13;;;-147.06;100.00
54453;BME280;40363;52.270;10.546;2023-05-11T12:29:47;75868.63;;;-147.06;100.00
54453;BME280;40363;52.270;10.546;2023-05-11T12:32:14;75848.06;;;-147.06;100.00
54453;BME280;40363;52.270;10.546;2023-05-11T12:34:41;75852.19;;;-147.06;100.00
54453;BME280;40363;52.270;10.546;2023-05-11T12:37:07;75860.41;;;-147.06;100.00
54453;BME280;40363;52.270;10.546;2023-05-11T12:39:34;75852.19;;;-147.06;100.00
54453;BME280;40363;52.270;10.546;2023-05-11T12:42:01;75848.06;;;-147.06;100.00